Portland Hillsboro Airport
KHIO : now visible

Airfield :











YOU CAN JOIN US ON...

 
LOGIN :

Register | Disclaimer

   EN    FR    IT 

 









Legend :    VFR   Marginal VFR   IFR   Intensive IFR   Very Intensive IFR
Visi :
Ceiling :
>= 8 km
>= 3000ft
5 to 8 km
1000 to 3000 ft
1500m to 5 km
500 to 1000 ft
800 to 1500m
200 to 500 ft
< 800m
< 200 ft
Symbols :   Thunderstorms  Fog  Heavy snow  Heavy precipitations  Wind > 20 kt






- Airport Elevation : 208 ft


KHIO - Portland Hillsboro

CURRENT METAR :
  • 150053Z 33004KT 8SM BKN013 OVC044 05/04 A2999 RMK AO2 SLP155 T00500044

EXPIRED METARs :
  • 142353Z 32003KT 9SM BKN013 OVC044 07/05 A2999 RMK AO2 SLP155 T00670050 10072 20061 56006
  • 142253Z AUTO 00000KT 10SM BKN008 OVC044 07/05 A2999 RMK AO2 SLP157 T00720050

TAF KHIO
Valid from the 15 at 00:00 until the 16 at 00:00 UTC


142342Z 1500/1524 15005KT P6SM VCSH BKN009 OVC060
FM150400 00000KT 4SM BR OVC009
FM150900 00000KT 1SM BR BKN004
FM151900 VRB03KT 3SM BR SCT004 BKN011
FM152200 20003KT 6SM BR SCT010 BKN021



MET'MAP, your aeronautical weather chart ! - Copyright ORBIFLY December 2007 - Disclaimer

ORBIFLY MET'MAP TEAM :

Programming & Development : Alexandra Zaïnal
Concept & original design : Baudouin d'Aumeries
Assistance for programming : Marc-Olivier Méhu
Technical & hardware support : Manuel Goepfert

Contact : metmap@orbifly.com




SOURCES & CREDITS :

   NOAA       Earth
Advisory